Time;durP1;ratioP1;P1;durP2;ratioP2;P2;SDS_P1;SDS_P2;PMS_P1;PMS_P2;Temp;Humidity;BMP_temperature;BMP_pressure;BME280_temperature;BME280_humidity;BME280_pressure;Samples;Min_cycle;Max_cycle;Signal;HPM_P1;HPM_P2
2022/06/10 00:02:02;;;;;;;14.70;4.00;;;;;;;;;;4985059;28;20072;-73
2022/06/10 00:04:28;;;;;;;13.73;5.30;;;;;;;;;;4986370;28;20030;-74
2022/06/10 00:06:54;;;;;;;16.40;4.70;;;;;;;;;;4982586;28;20157;-74
2022/06/10 00:09:20;;;;;;;20.58;4.85;;;;;;;;;;5001012;28;20033;-72
2022/06/10 00:11:46;;;;;;;24.05;5.55;;;;;;;;;;4988289;28;20089;-72
2022/06/10 00:14:12;;;;;;;17.83;4.80;;;;;;;;;;4990111;28;20533;-73
2022/06/10 00:16:38;;;;;;;18.50;4.65;;;;;;;;;;4990403;28;20022;-73
2022/06/10 00:19:04;;;;;;;14.48;4.90;;;;;;;;;;4984504;28;20127;-72
2022/06/10 00:21:30;;;;;;;18.05;5.00;;;;;;;;;;4986205;28;20060;-74
2022/06/10 00:23:57;;;;;;;17.05;5.35;;;;;;;;;;4995692;28;20052;-73
2022/06/10 00:26:23;;;;;;;17.10;5.05;;;;;;;;;;4994113;28;20031;-73
2022/06/10 00:28:49;;;;;;;19.27;5.53;;;;;;;;;;4987299;28;20030;-73
2022/06/10 00:31:16;;;;;;;17.77;5.50;;;;;;;;;;4995977;28;20025;-73
2022/06/10 00:33:42;;;;;;;25.75;6.00;;;;;;;;;;4993632;28;20034;-73
2022/06/10 00:36:09;;;;;;;20.20;5.35;;;;;;;;;;4986092;28;20105;-72
2022/06/10 00:38:38;;;;;;;15.70;4.20;;;;;;;;;;4991598;28;20405;-73
2022/06/10 00:41:05;;;;;;;17.02;4.65;;;;;;;;;;4993045;28;20038;-73
2022/06/10 00:43:33;;;;;;;17.30;4.15;;;;;;;;;;5003743;28;20089;-73
2022/06/10 00:46:05;;;;;;;20.10;5.80;;;;;;;;;;4988686;28;20025;-74
2022/06/10 00:48:45;;;;;;;18.80;5.53;;;;;;;;;;4984167;28;20038;-73
2022/06/10 00:51:14;;;;;;;23.58;5.05;;;;;;;;;;4980219;28;20027;-74
2022/06/10 00:53:41;;;;;;;19.38;4.55;;;;;;;;;;4987883;28;20146;-74
2022/06/10 00:56:09;;;;;;;22.33;5.95;;;;;;;;;;4983331;28;20106;-73
2022/06/10 00:58:40;;;;;;;21.10;5.72;;;;;;;;;;4985420;28;20034;-73
2022/06/10 01:01:08;;;;;;;26.25;5.45;;;;;;;;;;4989540;28;20280;-74
2022/06/10 01:03:34;;;;;;;19.65;5.85;;;;;;;;;;4985896;28;20362;-73
2022/06/10 01:06:00;;;;;;;12.98;5.00;;;;;;;;;;4981917;28;20106;-73
2022/06/10 01:08:26;;;;;;;21.10;6.95;;;;;;;;;;4978941;28;20053;-72
2022/06/10 01:10:58;;;;;;;16.45;4.95;;;;;;;;;;4984986;28;20385;-73
2022/06/10 01:13:35;;;;;;;25.48;5.85;;;;;;;;;;4990666;28;20038;-73
2022/06/10 01:16:02;;;;;;;23.50;4.40;;;;;;;;;;4985537;28;20030;-73
2022/06/10 01:19:00;;;;;;;17.90;5.05;;;;;;;;;;4982191;28;20022;-74
2022/06/10 01:21:26;;;;;;;22.15;5.55;;;;;;;;;;4928203;28;20038;-73
2022/06/10 01:24:04;;;;;;;16.85;6.05;;;;;;;;;;4987446;28;20388;-73
2022/06/10 01:26:30;;;;;;;18.02;6.30;;;;;;;;;;4978990;28;20026;-73
2022/06/10 01:29:03;;;;;;;21.90;6.18;;;;;;;;;;4981974;28;20034;-74
2022/06/10 01:31:35;;;;;;;19.98;5.55;;;;;;;;;;4981539;28;20034;-74
2022/06/10 01:34:07;;;;;;;18.27;6.18;;;;;;;;;;4987220;28;20387;-75
2022/06/10 01:36:45;;;;;;;16.52;5.72;;;;;;;;;;5003197;28;20032;-75
2022/06/10 01:39:17;;;;;;;23.10;5.53;;;;;;;;;;4999511;28;20054;-75
2022/06/10 01:41:43;;;;;;;19.98;6.05;;;;;;;;;;4993136;28;20030;-75
2022/06/10 01:44:28;;;;;;;19.40;4.88;;;;;;;;;;4993519;28;20026;-74
2022/06/10 01:47:03;;;;;;;17.83;6.57;;;;;;;;;;4997336;28;20030;-75
2022/06/10 01:49:31;;;;;;;32.10;8.55;;;;;;;;;;4995633;28;20606;-75
2022/06/10 01:51:58;;;;;;;15.68;5.75;;;;;;;;;;4993951;28;20030;-75
2022/06/10 01:54:31;;;;;;;23.38;5.00;;;;;;;;;;4990004;28;20105;-74
2022/06/10 01:56:58;;;;;;;22.95;5.15;;;;;;;;;;4992049;28;20030;-74
2022/06/10 01:59:33;;;;;;;14.75;5.40;;;;;;;;;;5004783;28;20030;-75
2022/06/10 02:02:05;;;;;;;20.80;4.90;;;;;;;;;;4997130;28;20030;-75
2022/06/10 02:04:34;;;;;;;19.02;5.40;;;;;;;;;;4991983;28;20030;-75
2022/06/10 02:07:06;;;;;;;21.92;5.68;;;;;;;;;;4991548;28;20057;-75
2022/06/10 02:09:48;;;;;;;21.30;5.63;;;;;;;;;;4986317;28;20539;-75
2022/06/10 02:12:21;;;;;;;14.52;4.50;;;;;;;;;;4992014;28;20434;-75
2022/06/10 02:15:02;;;;;;;18.40;4.85;;;;;;;;;;4992009;28;20081;-75
2022/06/10 02:17:32;;;;;;;19.48;5.30;;;;;;;;;;4997891;28;20088;-75
2022/06/10 02:19:59;;;;;;;25.38;5.72;;;;;;;;;;4990645;28;20023;-74
2022/06/10 02:22:31;;;;;;;18.88;6.20;;;;;;;;;;4990910;28;20050;-75
2022/06/10 02:25:10;;;;;;;24.33;5.38;;;;;;;;;;4990874;28;20026;-75
2022/06/10 02:27:38;;;;;;;27.27;5.85;;;;;;;;;;4988025;28;20026;-75
2022/06/10 02:30:25;;;;;;;25.02;6.10;;;;;;;;;;4992225;28;20035;-75
2022/06/10 02:32:52;;;;;;;16.40;5.90;;;;;;;;;;4984943;28;20033;-74
2022/06/10 02:35:18;;;;;;;20.17;5.00;;;;;;;;;;4997204;28;20037;-75
2022/06/10 02:37:44;;;;;;;26.83;6.57;;;;;;;;;;4996961;28;20030;-74
2022/06/10 02:40:14;;;;;;;20.67;4.82;;;;;;;;;;4998623;28;20025;-75
2022/06/10 02:42:43;;;;;;;20.88;6.20;;;;;;;;;;4997425;28;20105;-75
2022/06/10 02:45:18;;;;;;;17.02;5.65;;;;;;;;;;4996890;28;20019;-75
2022/06/10 02:48:00;;;;;;;22.55;5.40;;;;;;;;;;4989757;28;20034;-74
2022/06/10 02:50:26;;;;;;;33.67;5.75;;;;;;;;;;4988429;28;20033;-74
2022/06/10 02:52:53;;;;;;;18.83;5.82;;;;;;;;;;4992161;28;20175;-75
2022/06/10 02:55:22;;;;;;;21.90;5.05;;;;;;;;;;4990280;28;20026;-75
2022/06/10 03:01:12;;;;;;;21.63;5.20;;;;;;;;;;4991392;28;20100;-75
2022/06/10 03:03:53;;;;;;;23.45;6.15;;;;;;;;;;4989306;28;20030;-75
2022/06/10 03:06:25;;;;;;;19.17;6.65;;;;;;;;;;4990684;28;20034;-74
2022/06/10 03:09:17;;;;;;;17.13;5.47;;;;;;;;;;4990303;28;20108;-74
2022/06/10 03:11:55;;;;;;;20.10;6.15;;;;;;;;;;4992394;28;20503;-74
2022/06/10 03:14:21;;;;;;;21.90;5.80;;;;;;;;;;4982446;28;20044;-75
2022/06/10 03:17:13;;;;;;;18.20;5.55;;;;;;;;;;4991065;28;20030;-75
2022/06/10 03:19:58;;;;;;;21.08;5.85;;;;;;;;;;4990335;28;20510;-74
2022/06/10 03:22:27;;;;;;;14.98;4.60;;;;;;;;;;4990206;28;20018;-75
2022/06/10 03:24:58;;;;;;;21.70;5.75;;;;;;;;;;4989339;28;20041;-75
2022/06/10 03:27:31;;;;;;;24.08;7.85;;;;;;;;;;5001975;28;20034;-75
2022/06/10 03:30:06;;;;;;;26.55;7.00;;;;;;;;;;5000011;28;20030;-74
2022/06/10 03:32:42;;;;;;;22.63;6.73;;;;;;;;;;5001550;28;20037;-74
2022/06/10 03:35:14;;;;;;;11.88;3.90;;;;;;;;;;4990057;28;20534;-75
2022/06/10 03:37:41;;;;;;;25.50;7.00;;;;;;;;;;4996169;28;20034;-75
2022/06/10 03:40:07;;;;;;;20.58;4.90;;;;;;;;;;4991452;28;20023;-75
2022/06/10 03:42:34;;;;;;;23.75;4.55;;;;;;;;;;4998781;28;20034;-75
2022/06/10 03:45:00;;;;;;;26.55;5.55;;;;;;;;;;4995785;28;20033;-75
2022/06/10 03:47:31;;;;;;;32.00;5.95;;;;;;;;;;5001425;28;20025;-75
2022/06/10 03:49:57;;;;;;;21.35;5.25;;;;;;;;;;4996879;28;20041;-76
2022/06/10 03:52:28;;;;;;;28.13;5.68;;;;;;;;;;4987414;28;20030;-75
2022/06/10 03:54:54;;;;;;;23.55;7.03;;;;;;;;;;4991204;28;20026;-75
2022/06/10 03:57:20;;;;;;;15.80;5.85;;;;;;;;;;4990812;28;20037;-75
2022/06/10 03:59:47;;;;;;;22.55;5.00;;;;;;;;;;4983208;28;20024;-75
2022/06/10 04:02:13;;;;;;;15.80;4.32;;;;;;;;;;4989083;28;20022;-76
2022/06/10 04:04:39;;;;;;;23.27;4.63;;;;;;;;;;4987713;28;20064;-75
2022/06/10 04:07:10;;;;;;;17.23;4.65;;;;;;;;;;4992848;28;20424;-76
2022/06/10 04:09:36;;;;;;;15.13;6.95;;;;;;;;;;4991451;28;20061;-76
2022/06/10 04:12:03;;;;;;;23.05;5.63;;;;;;;;;;4989638;28;20053;-75
2022/06/10 04:14:29;;;;;;;25.33;5.18;;;;;;;;;;4988005;28;20435;-75
2022/06/10 04:16:55;;;;;;;15.75;4.10;;;;;;;;;;4988467;28;20146;-75
2022/06/10 04:19:21;;;;;;;17.27;5.05;;;;;;;;;;4990677;28;20025;-75
2022/06/10 04:21:47;;;;;;;23.55;5.00;;;;;;;;;;4989199;28;20026;-74
2022/06/10 04:24:13;;;;;;;27.27;5.20;;;;;;;;;;4987127;28;20538;-75
2022/06/10 04:26:39;;;;;;;21.27;4.72;;;;;;;;;;4989015;28;20080;-75
2022/06/10 04:29:05;;;;;;;28.40;5.05;;;;;;;;;;4989509;28;20559;-75
2022/06/10 04:31:32;;;;;;;15.07;4.43;;;;;;;;;;4987099;28;20029;-75
2022/06/10 04:33:58;;;;;;;16.92;5.20;;;;;;;;;;4989617;28;20076;-75
2022/06/10 04:36:24;;;;;;;26.52;6.10;;;;;;;;;;4990012;28;20530;-74
2022/06/10 04:38:50;;;;;;;16.67;5.18;;;;;;;;;;4992237;28;20038;-75
2022/06/10 04:41:16;;;;;;;22.88;6.10;;;;;;;;;;4992135;28;20038;-75
2022/06/10 04:43:42;;;;;;;12.05;4.07;;;;;;;;;;4997877;28;20030;-75
2022/06/10 04:46:09;;;;;;;22.40;6.70;;;;;;;;;;4995510;28;20027;-75
2022/06/10 04:48:36;;;;;;;18.48;4.05;;;;;;;;;;4989007;28;20030;-75
2022/06/10 04:51:02;;;;;;;17.05;4.45;;;;;;;;;;4996323;28;20077;-75
2022/06/10 04:53:28;;;;;;;16.73;5.22;;;;;;;;;;4987493;28;20084;-75
2022/06/10 04:55:54;;;;;;;18.38;5.00;;;;;;;;;;4996701;28;20047;-75
2022/06/10 04:58:20;;;;;;;16.40;5.40;;;;;;;;;;4993977;28;20037;-75
2022/06/10 05:00:51;;;;;;;21.23;6.32;;;;;;;;;;5002918;28;20476;-74
2022/06/10 05:03:17;;;;;;;20.38;5.97;;;;;;;;;;4983585;28;20056;-75
2022/06/10 05:05:44;;;;;;;18.35;4.57;;;;;;;;;;4997009;28;20022;-75
2022/06/10 05:08:12;;;;;;;21.08;5.70;;;;;;;;;;4995348;28;20030;-75
2022/06/10 05:10:38;;;;;;;18.00;5.07;;;;;;;;;;4987694;28;20034;-75
2022/06/10 05:13:04;;;;;;;23.88;5.70;;;;;;;;;;4992810;28;20049;-76
2022/06/10 05:15:30;;;;;;;16.50;6.28;;;;;;;;;;4992328;28;20165;-74
2022/06/10 05:17:57;;;;;;;20.73;4.63;;;;;;;;;;4992406;28;20104;-76
2022/06/10 05:20:26;;;;;;;19.70;5.43;;;;;;;;;;4991979;28;20081;-76
2022/06/10 05:22:52;;;;;;;16.85;4.88;;;;;;;;;;4993026;28;20046;-75
2022/06/10 05:25:18;;;;;;;17.92;4.20;;;;;;;;;;4991505;28;20033;-76
2022/06/10 05:27:45;;;;;;;16.70;4.72;;;;;;;;;;4992075;28;20030;-76
2022/06/10 05:30:15;;;;;;;20.00;4.55;;;;;;;;;;4993990;28;20022;-76
2022/06/10 05:32:41;;;;;;;20.30;6.18;;;;;;;;;;4993305;28;20027;-75
2022/06/10 05:35:08;;;;;;;16.60;5.00;;;;;;;;;;4991476;28;20505;-75
2022/06/10 05:37:34;;;;;;;21.58;5.68;;;;;;;;;;4993542;28;20148;-76
2022/06/10 05:40:00;;;;;;;14.93;4.53;;;;;;;;;;4998209;28;20046;-75
2022/06/10 05:42:26;;;;;;;20.02;6.50;;;;;;;;;;4997740;28;20018;-75
2022/06/10 05:44:53;;;;;;;17.83;5.35;;;;;;;;;;4990151;28;20019;-75
2022/06/10 05:47:19;;;;;;;15.13;4.80;;;;;;;;;;4990212;28;20034;-76
2022/06/10 05:49:46;;;;;;;14.38;4.13;;;;;;;;;;4993244;28;20038;-75
2022/06/10 05:52:14;;;;;;;20.45;4.80;;;;;;;;;;4993089;28;20030;-76
2022/06/10 05:54:41;;;;;;;20.35;5.95;;;;;;;;;;4996314;28;20392;-75
2022/06/10 05:57:07;;;;;;;15.60;5.68;;;;;;;;;;4992102;28;20052;-76
2022/06/10 05:59:33;;;;;;;18.92;4.68;;;;;;;;;;4992617;28;20030;-75
2022/06/10 06:02:00;;;;;;;19.73;4.65;;;;;;;;;;4992076;28;20026;-76
2022/06/10 06:04:27;;;;;;;19.05;4.97;;;;;;;;;;4991708;28;20080;-76
2022/06/10 06:06:53;;;;;;;17.42;4.85;;;;;;;;;;4992484;28;20028;-76
2022/06/10 06:09:20;;;;;;;23.98;5.35;;;;;;;;;;4991118;28;20146;-75
2022/06/10 06:11:47;;;;;;;14.10;4.30;;;;;;;;;;4991058;28;20046;-75
2022/06/10 06:14:14;;;;;;;17.13;5.07;;;;;;;;;;4990948;28;20472;-76
2022/06/10 06:16:40;;;;;;;14.93;4.68;;;;;;;;;;4990895;28;20026;-76
2022/06/10 06:19:06;;;;;;;17.08;5.32;;;;;;;;;;4991218;28;20036;-76
2022/06/10 06:21:33;;;;;;;17.73;5.75;;;;;;;;;;4991439;28;20472;-76
2022/06/10 06:23:59;;;;;;;10.20;4.32;;;;;;;;;;5004541;28;20373;-76
2022/06/10 06:26:25;;;;;;;11.95;4.57;;;;;;;;;;5009614;28;20029;-75
2022/06/10 06:28:51;;;;;;;20.10;5.47;;;;;;;;;;4990764;28;20065;-75
2022/06/10 06:31:17;;;;;;;17.40;4.00;;;;;;;;;;4998761;28;20053;-76
2022/06/10 06:33:44;;;;;;;15.15;4.68;;;;;;;;;;4995824;28;20424;-76
2022/06/10 06:36:14;;;;;;;24.83;5.15;;;;;;;;;;4992092;28;20034;-76
2022/06/10 06:38:41;;;;;;;17.45;4.35;;;;;;;;;;4984160;28;20034;-76
2022/06/10 06:41:09;;;;;;;13.27;4.93;;;;;;;;;;5001823;28;20075;-76
2022/06/10 06:43:36;;;;;;;18.48;4.28;;;;;;;;;;4991655;28;20023;-76
2022/06/10 06:46:02;;;;;;;21.10;4.18;;;;;;;;;;5002157;28;20022;-76
2022/06/10 06:48:28;;;;;;;12.90;4.78;;;;;;;;;;4997878;28;20041;-76
2022/06/10 06:50:54;;;;;;;16.73;4.78;;;;;;;;;;4996751;28;20062;-76
2022/06/10 06:53:20;;;;;;;19.38;4.28;;;;;;;;;;4988771;28;20022;-76
2022/06/10 06:55:46;;;;;;;16.25;4.13;;;;;;;;;;4990078;28;20026;-78
2022/06/10 06:58:16;;;;;;;16.10;4.72;;;;;;;;;;4994980;28;20588;-76
2022/06/10 07:00:43;;;;;;;18.73;4.80;;;;;;;;;;4994407;28;20053;-76
2022/06/10 07:03:09;;;;;;;19.52;4.50;;;;;;;;;;4989581;28;20030;-76
2022/06/10 07:05:35;;;;;;;18.23;4.22;;;;;;;;;;4980340;28;20030;-76
2022/06/10 07:08:01;;;;;;;16.40;4.82;;;;;;;;;;4983543;28;20026;-76
2022/06/10 07:10:28;;;;;;;15.15;3.83;;;;;;;;;;4992627;28;20924;-76
2022/06/10 07:12:54;;;;;;;14.57;4.43;;;;;;;;;;4988451;28;20065;-77
2022/06/10 07:15:21;;;;;;;18.10;4.35;;;;;;;;;;4976457;28;20030;-75
2022/06/10 07:17:47;;;;;;;17.85;4.93;;;;;;;;;;4995045;28;20081;-75
2022/06/10 07:20:23;;;;;;;18.40;4.00;;;;;;;;;;4988344;28;20597;-75
2022/06/10 07:22:49;;;;;;;17.13;4.72;;;;;;;;;;4993074;28;20030;-77
2022/06/10 07:25:16;;;;;;;18.95;4.85;;;;;;;;;;4983847;28;20030;-76
2022/06/10 07:27:43;;;;;;;15.15;5.75;;;;;;;;;;4980377;28;20280;-76
2022/06/10 07:30:09;;;;;;;13.23;3.88;;;;;;;;;;4999571;28;20118;-75
2022/06/10 07:32:35;;;;;;;15.63;4.13;;;;;;;;;;4986348;28;20601;-76
2022/06/10 07:35:01;;;;;;;18.10;5.22;;;;;;;;;;4996895;28;20121;-76
2022/06/10 07:37:28;;;;;;;10.90;4.60;;;;;;;;;;4988355;28;20049;-78
2022/06/10 07:39:54;;;;;;;17.85;3.95;;;;;;;;;;4995341;28;20109;-77
2022/06/10 07:42:20;;;;;;;16.08;4.97;;;;;;;;;;4990248;28;20036;-76
2022/06/10 07:44:46;;;;;;;18.45;4.10;;;;;;;;;;4989177;28;20033;-76
2022/06/10 07:47:14;;;;;;;19.92;4.85;;;;;;;;;;4989364;28;20072;-77
2022/06/10 07:49:40;;;;;;;20.92;5.20;;;;;;;;;;4994178;28;20164;-78
2022/06/10 07:52:07;;;;;;;17.15;3.95;;;;;;;;;;4992863;28;20030;-76
2022/06/10 07:54:36;;;;;;;14.43;4.93;;;;;;;;;;4996878;28;20068;-76
2022/06/10 07:57:03;;;;;;;13.25;3.78;;;;;;;;;;4992791;28;20038;-77
2022/06/10 07:59:30;;;;;;;12.02;4.15;;;;;;;;;;4987835;28;20026;-78
2022/06/10 08:01:56;;;;;;;16.65;4.20;;;;;;;;;;4994393;28;20473;-77
2022/06/10 08:04:22;;;;;;;13.15;3.60;;;;;;;;;;4997289;28;20021;-77
2022/06/10 08:06:48;;;;;;;15.60;3.35;;;;;;;;;;4995029;28;20037;-77
2022/06/10 08:09:17;;;;;;;22.20;5.57;;;;;;;;;;4984417;28;20028;-77
2022/06/10 08:11:43;;;;;;;13.23;3.83;;;;;;;;;;4989517;28;20076;-76
2022/06/10 08:14:09;;;;;;;17.80;4.22;;;;;;;;;;4991132;28;20487;-77
2022/06/10 08:16:36;;;;;;;11.48;3.40;;;;;;;;;;4995357;28;20450;-76
2022/06/10 08:19:03;;;;;;;12.98;3.80;;;;;;;;;;4991296;28;20065;-77
2022/06/10 08:24:14;;;;;;;17.45;4.82;;;;;;;;;;4981696;28;20045;-76
2022/06/10 08:26:40;;;;;;;13.60;3.70;;;;;;;;;;5001610;28;20327;-75
2022/06/10 08:29:07;;;;;;;13.63;3.95;;;;;;;;;;4992032;28;20041;-76
2022/06/10 08:31:33;;;;;;;16.05;4.05;;;;;;;;;;4991725;28;20030;-76
2022/06/10 08:34:01;;;;;;;14.90;4.45;;;;;;;;;;4994901;28;20050;-75
2022/06/10 08:36:27;;;;;;;9.95;3.40;;;;;;;;;;5002456;28;20056;-76
2022/06/10 08:38:53;;;;;;;13.98;3.85;;;;;;;;;;4989618;28;20041;-77
2022/06/10 08:41:19;;;;;;;13.73;4.00;;;;;;;;;;4991087;28;20496;-76
2022/06/10 08:43:48;;;;;;;10.23;4.30;;;;;;;;;;4997637;28;20033;-75
2022/06/10 08:46:18;;;;;;;12.13;3.33;;;;;;;;;;5000403;28;20439;-76
2022/06/10 08:48:56;;;;;;;11.05;4.07;;;;;;;;;;5003774;28;20026;-78
2022/06/10 08:51:36;;;;;;;12.10;3.63;;;;;;;;;;4997287;28;20053;-76
2022/06/10 08:54:02;;;;;;;13.57;3.33;;;;;;;;;;5000432;28;20045;-76
2022/06/10 08:56:33;;;;;;;9.40;2.95;;;;;;;;;;5000415;28;20112;-75
2022/06/10 08:59:26;;;;;;;9.23;2.90;;;;;;;;;;4998294;28;20461;-78
2022/06/10 09:01:52;;;;;;;13.82;3.28;;;;;;;;;;4999083;28;20026;-75
2022/06/10 09:04:29;;;;;;;7.55;3.70;;;;;;;;;;5000926;28;20117;-76
2022/06/10 09:06:57;;;;;;;15.60;3.25;;;;;;;;;;4999806;28;20043;-77
2022/06/10 09:09:26;;;;;;;11.85;4.45;;;;;;;;;;5005665;28;20379;-75
2022/06/10 09:11:55;;;;;;;10.45;3.28;;;;;;;;;;4995946;28;20114;-77
2022/06/10 09:14:26;;;;;;;11.30;3.05;;;;;;;;;;5000615;28;20026;-77
2022/06/10 09:17:10;;;;;;;14.43;4.00;;;;;;;;;;4999232;28;20122;-76
2022/06/10 09:19:41;;;;;;;11.45;3.20;;;;;;;;;;4999985;28;20080;-77
2022/06/10 09:22:16;;;;;;;12.02;3.30;;;;;;;;;;5000084;28;20041;-76
2022/06/10 09:25:10;;;;;;;11.77;3.25;;;;;;;;;;5002211;28;20034;-78
2022/06/10 09:27:44;;;;;;;15.95;3.40;;;;;;;;;;5009509;28;20045;-78
2022/06/10 09:30:12;;;;;;;9.40;3.63;;;;;;;;;;4996864;28;20674;-78
2022/06/10 09:32:57;;;;;;;12.13;3.10;;;;;;;;;;4999724;28;20080;-76
2022/06/10 09:35:34;;;;;;;10.65;2.90;;;;;;;;;;5000181;28;20717;-76
2022/06/10 09:38:21;;;;;;;7.07;2.88;;;;;;;;;;4998504;28;20072;-76
2022/06/10 09:41:06;;;;;;;13.43;3.63;;;;;;;;;;4996704;28;20028;-76
2022/06/10 09:43:44;;;;;;;13.88;3.75;;;;;;;;;;5006891;28;20486;-76
2022/06/10 09:46:28;;;;;;;11.68;3.45;;;;;;;;;;5005317;28;20049;-75
2022/06/10 09:48:54;;;;;;;10.23;2.97;;;;;;;;;;4999896;28;20029;-76
2022/06/10 09:51:20;;;;;;;11.50;3.10;;;;;;;;;;4999649;28;20228;-75
2022/06/10 09:53:50;;;;;;;11.05;3.67;;;;;;;;;;5006188;28;20390;-75
2022/06/10 09:56:36;;;;;;;14.68;4.03;;;;;;;;;;5000815;28;20092;-78
2022/06/10 09:59:27;;;;;;;14.15;3.17;;;;;;;;;;4990393;28;20038;-74
2022/06/10 10:02:03;;;;;;;12.27;3.80;;;;;;;;;;4996253;28;20073;-76
2022/06/10 10:04:48;;;;;;;9.65;2.75;;;;;;;;;;4993684;28;20046;-77
2022/06/10 10:07:21;;;;;;;13.20;3.70;;;;;;;;;;5001372;28;20831;-76
2022/06/10 10:09:58;;;;;;;12.40;3.05;;;;;;;;;;4995838;28;20036;-77
2022/06/10 10:12:24;;;;;;;12.68;3.17;;;;;;;;;;4998036;28;20045;-77
2022/06/10 10:15:09;;;;;;;12.38;4.07;;;;;;;;;;4993797;28;20449;-78
2022/06/10 10:17:55;;;;;;;12.05;3.20;;;;;;;;;;4996338;28;20399;-79
2022/06/10 10:20:31;;;;;;;11.88;3.47;;;;;;;;;;4968048;28;20393;-77
2022/06/10 10:23:04;;;;;;;9.70;3.13;;;;;;;;;;4993913;28;20076;-77
2022/06/10 10:25:30;;;;;;;8.18;3.08;;;;;;;;;;4995959;28;20241;-77
2022/06/10 10:27:57;;;;;;;7.68;2.85;;;;;;;;;;4999549;28;20040;-78
2022/06/10 10:30:31;;;;;;;11.13;3.75;;;;;;;;;;4992707;28;20030;-75
2022/06/10 10:33:00;;;;;;;7.72;2.50;;;;;;;;;;4998712;28;20108;-76
2022/06/10 10:35:30;;;;;;;11.05;4.03;;;;;;;;;;4999877;28;20500;-77
2022/06/10 10:38:00;;;;;;;13.20;3.42;;;;;;;;;;4994761;28;20065;-77
2022/06/10 10:40:40;;;;;;;8.65;2.85;;;;;;;;;;4998953;28;20376;-77
2022/06/10 10:43:10;;;;;;;8.57;2.90;;;;;;;;;;4995808;28;20022;-77
2022/06/10 10:45:42;;;;;;;8.77;2.63;;;;;;;;;;5000443;28;20030;-76
2022/06/10 10:48:19;;;;;;;10.45;2.90;;;;;;;;;;4995265;28;20050;-77
2022/06/10 10:51:11;;;;;;;10.25;3.00;;;;;;;;;;4991807;28;20037;-79
2022/06/10 10:53:40;;;;;;;9.05;3.20;;;;;;;;;;4987473;28;20137;-77
2022/06/10 10:56:08;;;;;;;9.00;2.92;;;;;;;;;;4989095;28;20026;-77
2022/06/10 10:58:37;;;;;;;10.05;3.50;;;;;;;;;;4992443;28;20022;-77
2022/06/10 11:01:43;;;;;;;6.80;2.83;;;;;;;;;;4989285;28;20038;-77
2022/06/10 11:03:56;;;;;;;9.20;2.95;;;;;;;;;;4990632;28;20049;-78
2022/06/10 11:06:33;;;;;;;10.15;3.13;;;;;;;;;;4991892;28;20057;-77
2022/06/10 11:09:14;;;;;;;9.35;2.50;;;;;;;;;;4983861;28;20036;-77
2022/06/10 11:11:41;;;;;;;6.55;2.40;;;;;;;;;;5003456;28;20053;-77
2022/06/10 11:14:25;;;;;;;10.25;3.45;;;;;;;;;;4994030;28;20540;-77
2022/06/10 11:17:02;;;;;;;8.20;3.22;;;;;;;;;;4998218;28;20029;-78
2022/06/10 11:19:34;;;;;;;8.18;2.40;;;;;;;;;;5002746;28;20043;-77
2022/06/10 11:22:22;;;;;;;9.70;3.08;;;;;;;;;;5000562;28;20510;-77
2022/06/10 11:25:15;;;;;;;6.30;2.88;;;;;;;;;;4998855;28;20061;-76
2022/06/10 11:27:50;;;;;;;7.50;2.90;;;;;;;;;;4997472;28;20030;-77
2022/06/10 11:30:24;;;;;;;11.75;2.92;;;;;;;;;;4999411;28;20031;-78
2022/06/10 11:32:51;;;;;;;11.27;3.20;;;;;;;;;;4998822;28;20125;-77
2022/06/10 11:35:33;;;;;;;11.50;4.05;;;;;;;;;;4997574;28;20037;-77
2022/06/10 11:38:02;;;;;;;10.70;3.50;;;;;;;;;;4995119;28;20034;-77
2022/06/10 11:40:43;;;;;;;9.90;2.80;;;;;;;;;;5001216;28;20484;-77
2022/06/10 11:43:27;;;;;;;15.05;3.33;;;;;;;;;;4990189;28;20517;-77
2022/06/10 11:45:59;;;;;;;10.95;3.42;;;;;;;;;;4990303;28;20171;-77
2022/06/10 11:48:32;;;;;;;10.82;4.03;;;;;;;;;;4993377;28;20079;-77
2022/06/10 11:51:13;;;;;;;9.93;3.47;;;;;;;;;;4990819;28;20073;-76
2022/06/10 11:53:44;;;;;;;14.80;3.25;;;;;;;;;;5000801;28;20037;-77
2022/06/10 12:01:56;;;;;;;11.55;3.63;;;;;;;;;;4988668;28;20602;-76
2022/06/10 12:04:26;;;;;;;16.20;3.50;;;;;;;;;;4991958;28;20030;-76
2022/06/10 12:06:57;;;;;;;11.85;4.80;;;;;;;;;;4993846;28;20434;-77
2022/06/10 12:09:29;;;;;;;12.20;3.20;;;;;;;;;;4997964;28;20064;-76
2022/06/10 12:11:55;;;;;;;13.75;3.40;;;;;;;;;;5000344;28;20496;-76
2022/06/10 12:14:22;;;;;;;13.48;3.90;;;;;;;;;;5000113;28;20431;-76
2022/06/10 12:16:51;;;;;;;10.07;4.20;;;;;;;;;;4999291;28;20026;-77
2022/06/10 12:19:22;;;;;;;16.63;3.50;;;;;;;;;;4998588;28;20026;-78
2022/06/10 12:21:48;;;;;;;11.20;2.88;;;;;;;;;;4993445;28;20053;-77
2022/06/10 12:24:16;;;;;;;7.15;2.80;;;;;;;;;;4989783;28;20074;-76
2022/06/10 12:26:47;;;;;;;8.60;2.40;;;;;;;;;;5002958;28;20030;-78
2022/06/10 12:29:17;;;;;;;5.80;2.08;;;;;;;;;;4994266;28;20022;-76
2022/06/10 12:32:05;;;;;;;6.40;2.72;;;;;;;;;;4993239;28;20081;-76
2022/06/10 12:34:34;;;;;;;8.27;2.75;;;;;;;;;;4999926;28;20100;-77
2022/06/10 12:37:02;;;;;;;10.38;3.00;;;;;;;;;;5004292;28;20045;-77
2022/06/10 12:39:31;;;;;;;8.98;3.28;;;;;;;;;;4998566;28;20026;-77
2022/06/10 12:42:19;;;;;;;19.67;3.42;;;;;;;;;;4999781;28;20022;-77
2022/06/10 12:44:49;;;;;;;10.23;3.28;;;;;;;;;;5005567;28;20026;-76
2022/06/10 12:47:19;;;;;;;12.13;3.25;;;;;;;;;;5006441;28;20850;-76
2022/06/10 12:49:47;;;;;;;10.18;3.90;;;;;;;;;;5007735;28;20023;-76
2022/06/10 12:52:22;;;;;;;10.05;2.92;;;;;;;;;;5007924;28;20061;-73
2022/06/10 12:55:08;;;;;;;7.75;2.80;;;;;;;;;;5001108;28;20442;-75
2022/06/10 12:57:39;;;;;;;7.30;2.33;;;;;;;;;;4993744;28;20485;-74
2022/06/10 13:00:18;;;;;;;8.18;2.60;;;;;;;;;;4996370;28;20057;-77
2022/06/10 13:02:44;;;;;;;5.85;2.72;;;;;;;;;;4997126;28;20026;-74
2022/06/10 13:05:27;;;;;;;4.13;2.03;;;;;;;;;;4999551;28;20109;-76
2022/06/10 13:07:55;;;;;;;9.75;3.17;;;;;;;;;;4994316;28;20022;-76
2022/06/10 13:10:30;;;;;;;7.53;2.42;;;;;;;;;;4997930;28;20034;-75
2022/06/10 13:13:17;;;;;;;4.85;2.30;;;;;;;;;;5000816;28;20106;-75
2022/06/10 13:15:44;;;;;;;6.25;2.25;;;;;;;;;;4994102;28;20071;-76
2022/06/10 13:18:16;;;;;;;5.05;1.85;;;;;;;;;;4996961;28;20023;-77
2022/06/10 13:20:42;;;;;;;4.80;1.83;;;;;;;;;;4996280;28;20015;-76
2022/06/10 13:23:10;;;;;;;3.05;1.50;;;;;;;;;;4992813;28;20031;-77
2022/06/10 13:25:37;;;;;;;4.40;1.50;;;;;;;;;;4994319;28;20034;-75
2022/06/10 13:28:11;;;;;;;2.00;1.80;;;;;;;;;;4990724;28;20045;-76
2022/06/10 13:30:38;;;;;;;3.58;1.83;;;;;;;;;;4991291;28;20145;-76
2022/06/10 13:33:06;;;;;;;2.30;1.67;;;;;;;;;;4996247;28;20036;-75
2022/06/10 13:35:35;;;;;;;1.95;1.70;;;;;;;;;;4999749;28;20112;-76
2022/06/10 13:38:09;;;;;;;2.15;1.80;;;;;;;;;;4996077;28;20026;-78
2022/06/10 13:40:38;;;;;;;2.08;1.50;;;;;;;;;;4995208;28;20046;-76
2022/06/10 13:43:04;;;;;;;4.82;2.13;;;;;;;;;;4998839;28;20023;-76
2022/06/10 13:45:40;;;;;;;3.33;1.75;;;;;;;;;;4999517;28;20018;-77
2022/06/10 13:48:09;;;;;;;2.95;1.40;;;;;;;;;;4993643;28;20030;-78
2022/06/10 13:51:00;;;;;;;8.52;2.67;;;;;;;;;;4998899;28;20034;-78
2022/06/10 13:53:26;;;;;;;2.88;1.67;;;;;;;;;;5002124;28;20107;-76
2022/06/10 13:55:55;;;;;;;3.70;1.73;;;;;;;;;;5000302;28;20131;-76
2022/06/10 13:58:23;;;;;;;4.43;1.70;;;;;;;;;;5007973;28;20030;-76
2022/06/10 14:00:53;;;;;;;6.47;2.10;;;;;;;;;;5003244;28;20040;-76
2022/06/10 14:03:29;;;;;;;5.70;2.17;;;;;;;;;;4996153;28;20033;-76
2022/06/10 14:06:03;;;;;;;4.63;2.00;;;;;;;;;;5000731;28;20026;-77
2022/06/10 14:08:31;;;;;;;5.45;1.80;;;;;;;;;;4995684;28;20034;-76
2022/06/10 14:10:57;;;;;;;5.25;1.95;;;;;;;;;;4995657;28;20625;-76
2022/06/10 14:13:24;;;;;;;6.65;2.05;;;;;;;;;;4992813;28;20049;-77
2022/06/10 14:15:55;;;;;;;3.50;1.98;;;;;;;;;;4990937;28;20083;-76
2022/06/10 14:18:23;;;;;;;6.60;1.88;;;;;;;;;;4994154;28;20053;-76
2022/06/10 14:20:53;;;;;;;5.03;1.55;;;;;;;;;;4995919;28;20058;-77
2022/06/10 14:23:28;;;;;;;4.00;1.80;;;;;;;;;;4997433;28;20041;-75
2022/06/10 14:26:03;;;;;;;3.55;1.75;;;;;;;;;;4993820;28;20026;-77
2022/06/10 14:28:29;;;;;;;5.07;2.35;;;;;;;;;;4995748;28;20369;-77
2022/06/10 14:30:57;;;;;;;4.65;2.10;;;;;;;;;;4994969;28;20117;-76
2022/06/10 14:33:30;;;;;;;4.07;2.70;;;;;;;;;;4996876;28;20080;-77
2022/06/10 14:36:14;;;;;;;7.35;2.40;;;;;;;;;;4996470;28;20037;-79
2022/06/10 14:38:43;;;;;;;3.25;1.80;;;;;;;;;;4995542;28;20030;-78
2022/06/10 14:41:10;;;;;;;5.13;2.13;;;;;;;;;;4993814;28;20804;-77
2022/06/10 14:43:38;;;;;;;4.15;2.30;;;;;;;;;;4997678;28;20458;-77
2022/06/10 14:46:04;;;;;;;2.97;1.90;;;;;;;;;;4991741;28;20050;-80
2022/06/10 14:48:32;;;;;;;3.63;2.13;;;;;;;;;;4991810;28;20113;-78
2022/06/10 14:51:07;;;;;;;3.83;1.85;;;;;;;;;;4998951;28;20137;-76
2022/06/10 14:53:34;;;;;;;4.65;1.85;;;;;;;;;;4996461;28;21153;-77
2022/06/10 14:56:00;;;;;;;3.42;1.92;;;;;;;;;;4993352;28;20022;-77
2022/06/10 14:58:26;;;;;;;4.32;1.90;;;;;;;;;;4995591;28;20447;-77
2022/06/10 15:00:53;;;;;;;5.90;2.10;;;;;;;;;;4997746;28;20022;-78
2022/06/10 15:03:20;;;;;;;4.68;2.10;;;;;;;;;;4998207;28;20022;-76
2022/06/10 15:08:33;;;;;;;4.85;2.17;;;;;;;;;;4994670;28;20144;-76